VOE8RR LIEO-LFRG
Flight info
| Callsign | VOE8RR |
|---|---|
| Flight time | 1h 43m |
| Altitude | 34000 |
| Route | OKIVA P980 DIKEL DCT OKBON DCT PIGOS DCT BARSO DCT OKTET DCT GIPNO DCT BULOL DCT IDAVO DCT BAGBI DCT SIZZA DCT CHABY DCT AMODO DCT COHPA UM729 RESMI/N0397F280 UN491 LGL |
| Aircraft | A320/M-SDFGHIJ1RWY/LB1 |
Departure
| Time | 2026-05-05 13:20 |
|---|---|
| Airport | Olbia Costa Smeralda Airport (LIEO) |
Arrival
| Time | 2026-05-05 15:04 |
|---|---|
| Airport | Deauville Normandie airport (LFRG) |
| Time | Latitude | Longitude | Altitude | Speed | Heading |
|---|---|---|---|---|---|
| 2026-05-05 12:39 | 40.90246 | 9.51662 | 34 ft | 0 kts | 325° |
| 2026-05-05 13:09 | 40.90245 | 9.51664 | 34 ft | 2 kts | 325° |
| 2026-05-05 13:10 | 40.90225 | 9.51684 | 34 ft | 4 kts | 316° |
| 2026-05-05 13:10 | 40.90208 | 9.51711 | 34 ft | 4 kts | 287° |
| 2026-05-05 13:10 | 40.90208 | 9.51735 | 34 ft | 0 kts | 234° |
| 2026-05-05 13:13 | 40.90195 | 9.51711 | 32 ft | 7 kts | 234° |
| 2026-05-05 13:14 | 40.90165 | 9.51654 | 34 ft | 12 kts | 235° |
| 2026-05-05 13:14 | 40.90115 | 9.51556 | 33 ft | 11 kts | 235° |
| 2026-05-05 13:14 | 40.90066 | 9.51487 | 34 ft | 12 kts | 203° |
| 2026-05-05 13:14 | 40.89965 | 9.51509 | 34 ft | 16 kts | 190° |
| 2026-05-05 13:15 | 40.89889 | 9.51420 | 34 ft | 14 kts | 233° |
| 2026-05-05 13:15 | 40.89835 | 9.51312 | 33 ft | 19 kts | 236° |
| 2026-05-05 13:15 | 40.89740 | 9.51131 | 34 ft | 26 kts | 234° |
| 2026-05-05 13:15 | 40.89634 | 9.50930 | 33 ft | 27 kts | 236° |
| 2026-05-05 13:16 | 40.89526 | 9.50721 | 34 ft | 28 kts | 235° |
| 2026-05-05 13:16 | 40.89415 | 9.50513 | 34 ft | 22 kts | 232° |
| 2026-05-05 13:16 | 40.89387 | 9.50466 | 34 ft | 0 kts | 225° |
| 2026-05-05 13:19 | 40.89361 | 9.50448 | 34 ft | 12 kts | 204° |
| 2026-05-05 13:19 | 40.89279 | 9.50513 | 33 ft | 16 kts | 100° |
| 2026-05-05 13:19 | 40.89264 | 9.50610 | 34 ft | 9 kts | 79° |
| 2026-05-05 13:19 | 40.89300 | 9.50679 | 34 ft | 12 kts | 58° |
| 2026-05-05 13:20 | 40.89443 | 9.50953 | 33 ft | 71 kts | 55° |
| 2026-05-05 13:20 | 40.89843 | 9.51721 | 30 ft | 131 kts | 55° |
| 2026-05-05 13:20 | 40.90448 | 9.52875 | 180 ft | 162 kts | 56° |
| 2026-05-05 13:20 | 40.91080 | 9.54104 | 868 ft | 162 kts | 57° |
| 2026-05-05 13:21 | 40.91736 | 9.55349 | 1404 ft | 173 kts | 56° |
| 2026-05-05 13:21 | 40.92485 | 9.56738 | 1652 ft | 197 kts | 56° |
| 2026-05-05 13:21 | 40.93316 | 9.58310 | 1944 ft | 221 kts | 56° |
| 2026-05-05 13:21 | 40.94234 | 9.60053 | 2468 ft | 235 kts | 57° |
| 2026-05-05 13:22 | 40.95221 | 9.61842 | 3045 ft | 252 kts | 48° |
| 2026-05-05 13:22 | 40.96774 | 9.63106 | 3485 ft | 275 kts | 14° |
| 2026-05-05 13:22 | 40.98689 | 9.63099 | 4179 ft | 280 kts | 340° |
| 2026-05-05 13:22 | 41.00362 | 9.61861 | 5047 ft | 277 kts | 321° |
| 2026-05-05 13:23 | 41.01935 | 9.60379 | 5974 ft | 278 kts | 322° |
| 2026-05-05 13:23 | 41.03525 | 9.58907 | 6830 ft | 280 kts | 322° |
| 2026-05-05 13:23 | 41.05129 | 9.57435 | 7652 ft | 281 kts | 322° |
| 2026-05-05 13:23 | 41.06755 | 9.55941 | 8428 ft | 286 kts | 322° |
| 2026-05-05 13:24 | 41.08395 | 9.54439 | 9194 ft | 288 kts | 322° |
| 2026-05-05 13:24 | 41.10050 | 9.52921 | 9954 ft | 291 kts | 321° |
| 2026-05-05 13:24 | 41.11745 | 9.51363 | 10398 ft | 306 kts | 321° |
| 2026-05-05 13:24 | 41.13559 | 9.49688 | 10625 ft | 327 kts | 321° |
| 2026-05-05 13:25 | 41.15308 | 9.48076 | 11212 ft | 333 kts | 321° |
| 2026-05-05 13:25 | 41.17217 | 9.46315 | 11906 ft | 336 kts | 320° |
| 2026-05-05 13:25 | 41.19147 | 9.44534 | 12616 ft | 339 kts | 320° |
| 2026-05-05 13:25 | 41.21090 | 9.42741 | 13305 ft | 342 kts | 320° |
| 2026-05-05 13:26 | 41.23052 | 9.40928 | 13968 ft | 345 kts | 320° |
| 2026-05-05 13:26 | 41.25028 | 9.39101 | 14616 ft | 347 kts | 320° |
| 2026-05-05 13:26 | 41.27018 | 9.37258 | 15231 ft | 351 kts | 320° |
| 2026-05-05 13:26 | 41.29027 | 9.35395 | 15843 ft | 353 kts | 320° |
| 2026-05-05 13:27 | 41.31052 | 9.33513 | 16438 ft | 357 kts | 320° |
| 2026-05-05 13:27 | 41.33091 | 9.31617 | 17019 ft | 360 kts | 320° |
| 2026-05-05 13:27 | 41.35152 | 9.29703 | 17583 ft | 363 kts | 320° |
| 2026-05-05 13:27 | 41.37226 | 9.27774 | 18147 ft | 365 kts | 320° |
| 2026-05-05 13:28 | 41.39315 | 9.25825 | 18683 ft | 368 kts | 320° |
| 2026-05-05 13:28 | 41.41420 | 9.23859 | 19239 ft | 371 kts | 320° |
| 2026-05-05 13:28 | 41.43541 | 9.21879 | 19787 ft | 373 kts | 320° |
| 2026-05-05 13:28 | 41.45677 | 9.19892 | 20329 ft | 376 kts | 320° |
| 2026-05-05 13:29 | 41.47825 | 9.17893 | 20867 ft | 378 kts | 320° |
| 2026-05-05 13:29 | 41.49982 | 9.15879 | 21375 ft | 380 kts | 320° |
| 2026-05-05 13:29 | 41.52156 | 9.13844 | 21889 ft | 383 kts | 320° |
| 2026-05-05 13:29 | 41.54346 | 9.11797 | 22398 ft | 386 kts | 321° |
| 2026-05-05 13:30 | 41.56687 | 9.09984 | 22872 ft | 392 kts | 326° |
| 2026-05-05 13:30 | 41.59089 | 9.08246 | 23353 ft | 394 kts | 326° |
| 2026-05-05 13:30 | 41.61507 | 9.06499 | 23808 ft | 397 kts | 326° |
| 2026-05-05 13:30 | 41.63940 | 9.04743 | 24256 ft | 399 kts | 326° |
| 2026-05-05 13:31 | 41.66383 | 9.02978 | 24676 ft | 401 kts | 326° |
| 2026-05-05 13:31 | 41.68853 | 9.01188 | 25068 ft | 403 kts | 326° |
| 2026-05-05 13:31 | 41.71326 | 8.99389 | 25454 ft | 406 kts | 326° |
| 2026-05-05 13:31 | 41.73815 | 8.97580 | 25849 ft | 409 kts | 326° |
| 2026-05-05 13:32 | 41.76323 | 8.95758 | 26205 ft | 411 kts | 326° |
| 2026-05-05 13:32 | 41.78844 | 8.93922 | 26567 ft | 414 kts | 325° |
| 2026-05-05 13:32 | 41.81378 | 8.92078 | 26908 ft | 416 kts | 325° |
| 2026-05-05 13:32 | 41.83930 | 8.90216 | 27253 ft | 418 kts | 325° |
| 2026-05-05 13:33 | 41.86489 | 8.88347 | 27607 ft | 419 kts | 325° |
| 2026-05-05 13:33 | 41.89061 | 8.86471 | 27932 ft | 422 kts | 325° |
| 2026-05-05 13:33 | 41.91644 | 8.84584 | 28247 ft | 424 kts | 325° |
| 2026-05-05 13:33 | 41.94238 | 8.82686 | 28565 ft | 426 kts | 325° |
| 2026-05-05 13:34 | 41.96842 | 8.80776 | 28871 ft | 427 kts | 325° |
| 2026-05-05 13:34 | 41.99454 | 8.78855 | 29151 ft | 429 kts | 325° |
| 2026-05-05 13:34 | 42.02078 | 8.76926 | 29429 ft | 431 kts | 325° |
| 2026-05-05 13:34 | 42.04721 | 8.74984 | 29680 ft | 434 kts | 325° |
| 2026-05-05 13:35 | 42.07375 | 8.73032 | 29942 ft | 436 kts | 325° |
| 2026-05-05 13:35 | 42.10039 | 8.71071 | 30211 ft | 437 kts | 324° |
| 2026-05-05 13:35 | 42.12711 | 8.69101 | 30474 ft | 439 kts | 324° |
| 2026-05-05 13:35 | 42.15394 | 8.67122 | 30734 ft | 440 kts | 324° |
| 2026-05-05 13:36 | 42.18084 | 8.65139 | 30977 ft | 441 kts | 324° |
| 2026-05-05 13:36 | 42.20772 | 8.63155 | 31316 ft | 440 kts | 324° |
| 2026-05-05 13:36 | 42.23452 | 8.61172 | 31676 ft | 439 kts | 324° |
| 2026-05-05 13:36 | 42.26121 | 8.59197 | 32035 ft | 437 kts | 324° |
| 2026-05-05 13:37 | 42.28778 | 8.57225 | 32372 ft | 435 kts | 324° |
| 2026-05-05 13:37 | 42.31419 | 8.55263 | 32681 ft | 434 kts | 324° |
| 2026-05-05 13:37 | 42.34065 | 8.53298 | 32972 ft | 433 kts | 324° |
| 2026-05-05 13:37 | 42.36694 | 8.51342 | 33290 ft | 431 kts | 323° |
| 2026-05-05 13:38 | 42.39320 | 8.49388 | 33584 ft | 430 kts | 323° |
| 2026-05-05 13:38 | 42.41940 | 8.47434 | 33873 ft | 429 kts | 323° |
| 2026-05-05 13:38 | 42.47113 | 8.43556 | 33981 ft | 418 kts | 322° |
| 2026-05-05 13:39 | 42.51984 | 8.39380 | 33980 ft | 412 kts | 318° |
| 2026-05-05 13:39 | 42.56682 | 8.34973 | 33980 ft | 410 kts | 317° |
| 2026-05-05 13:40 | 42.60586 | 8.31306 | 33981 ft | 411 kts | 317° |
| 2026-05-05 13:40 | 42.65333 | 8.26959 | 33980 ft | 412 kts | 318° |
| 2026-05-05 13:41 | 42.70104 | 8.22645 | 33976 ft | 412 kts | 318° |
| 2026-05-05 13:41 | 42.74866 | 8.18313 | 33971 ft | 412 kts | 318° |
| 2026-05-05 13:42 | 42.79620 | 8.13968 | 33961 ft | 412 kts | 318° |
| 2026-05-05 13:42 | 42.84384 | 8.09608 | 33958 ft | 413 kts | 318° |
| 2026-05-05 13:43 | 42.89150 | 8.05242 | 33962 ft | 413 kts | 318° |
| 2026-05-05 13:43 | 42.93919 | 8.00859 | 33953 ft | 414 kts | 318° |
| 2026-05-05 13:44 | 42.98694 | 7.96452 | 33951 ft | 415 kts | 318° |
| 2026-05-05 13:44 | 43.03478 | 7.92033 | 33954 ft | 416 kts | 318° |
| 2026-05-05 13:45 | 43.08281 | 7.87592 | 33947 ft | 417 kts | 318° |
| 2026-05-05 13:45 | 43.13095 | 7.83134 | 33961 ft | 419 kts | 318° |
| 2026-05-05 13:46 | 43.17925 | 7.78658 | 33954 ft | 419 kts | 318° |
| 2026-05-05 13:46 | 43.22757 | 7.74167 | 33953 ft | 420 kts | 318° |
| 2026-05-05 13:47 | 43.27592 | 7.69659 | 33948 ft | 420 kts | 318° |
| 2026-05-05 13:47 | 43.32429 | 7.65137 | 33953 ft | 421 kts | 318° |
| 2026-05-05 13:48 | 43.37276 | 7.60596 | 33956 ft | 422 kts | 318° |
| 2026-05-05 13:48 | 43.42130 | 7.56045 | 33959 ft | 423 kts | 318° |
| 2026-05-05 13:49 | 43.46993 | 7.51479 | 33959 ft | 423 kts | 318° |
| 2026-05-05 13:49 | 43.51853 | 7.46910 | 33954 ft | 424 kts | 318° |
| 2026-05-05 13:50 | 43.56720 | 7.42331 | 33949 ft | 423 kts | 318° |
| 2026-05-05 13:50 | 43.61583 | 7.37736 | 33945 ft | 424 kts | 318° |
| 2026-05-05 13:51 | 43.66474 | 7.33172 | 33954 ft | 425 kts | 319° |
| 2026-05-05 13:51 | 43.71417 | 7.28679 | 33958 ft | 426 kts | 319° |
| 2026-05-05 13:52 | 43.76372 | 7.24180 | 33957 ft | 426 kts | 319° |
| 2026-05-05 13:52 | 43.81318 | 7.19649 | 33957 ft | 426 kts | 319° |
| 2026-05-05 13:53 | 43.86256 | 7.15105 | 33957 ft | 426 kts | 319° |
| 2026-05-05 13:53 | 43.91196 | 7.10542 | 33963 ft | 427 kts | 319° |
| 2026-05-05 13:54 | 43.96131 | 7.05971 | 33961 ft | 427 kts | 319° |
| 2026-05-05 13:54 | 44.01071 | 7.01395 | 33956 ft | 427 kts | 319° |
| 2026-05-05 13:55 | 44.06019 | 6.96809 | 33954 ft | 428 kts | 319° |
| 2026-05-05 13:55 | 44.10970 | 6.92204 | 33946 ft | 429 kts | 319° |
| 2026-05-05 13:56 | 44.15935 | 6.87570 | 33956 ft | 430 kts | 319° |
| 2026-05-05 13:56 | 44.20923 | 6.82918 | 33938 ft | 431 kts | 319° |
| 2026-05-05 13:57 | 44.25900 | 6.78265 | 33948 ft | 431 kts | 319° |
| 2026-05-05 13:57 | 44.30877 | 6.73588 | 33936 ft | 431 kts | 319° |
| 2026-05-05 13:58 | 44.35851 | 6.68893 | 33942 ft | 431 kts | 319° |
| 2026-05-05 13:58 | 44.40818 | 6.64205 | 33949 ft | 432 kts | 319° |
| 2026-05-05 13:59 | 44.48287 | 6.57144 | 33949 ft | 431 kts | 319° |
| 2026-05-05 14:00 | 44.54949 | 6.50842 | 33955 ft | 432 kts | 319° |
| 2026-05-05 14:00 | 44.60740 | 6.45354 | 33952 ft | 432 kts | 319° |
| 2026-05-05 14:01 | 44.65718 | 6.40619 | 33951 ft | 432 kts | 319° |
| 2026-05-05 14:01 | 44.70699 | 6.35868 | 33950 ft | 432 kts | 318° |
| 2026-05-05 14:02 | 44.75676 | 6.31113 | 33951 ft | 433 kts | 318° |
| 2026-05-05 14:02 | 44.80688 | 6.26315 | 33957 ft | 432 kts | 318° |
| 2026-05-05 14:03 | 44.85658 | 6.21543 | 33940 ft | 433 kts | 318° |
| 2026-05-05 14:03 | 44.90623 | 6.16765 | 33932 ft | 432 kts | 318° |
| 2026-05-05 14:04 | 44.95593 | 6.11974 | 33928 ft | 433 kts | 318° |
| 2026-05-05 14:04 | 45.00575 | 6.07168 | 33929 ft | 434 kts | 318° |
| 2026-05-05 14:05 | 45.05552 | 6.02339 | 33918 ft | 434 kts | 318° |
| 2026-05-05 14:05 | 45.10494 | 5.97533 | 33906 ft | 434 kts | 318° |
| 2026-05-05 14:06 | 45.15476 | 5.92689 | 33903 ft | 435 kts | 318° |
| 2026-05-05 14:06 | 45.20472 | 5.87828 | 33898 ft | 435 kts | 318° |
| 2026-05-05 14:07 | 45.25463 | 5.82958 | 33891 ft | 436 kts | 318° |
| 2026-05-05 14:07 | 45.30464 | 5.78074 | 33880 ft | 436 kts | 318° |
| 2026-05-05 14:08 | 45.35461 | 5.73176 | 33882 ft | 436 kts | 318° |
| 2026-05-05 14:08 | 45.40453 | 5.68259 | 33879 ft | 437 kts | 318° |
| 2026-05-05 14:09 | 45.45449 | 5.63335 | 33877 ft | 437 kts | 318° |
| 2026-05-05 14:09 | 45.50453 | 5.58400 | 33879 ft | 437 kts | 318° |
| 2026-05-05 14:10 | 45.55456 | 5.53457 | 33880 ft | 438 kts | 318° |
| 2026-05-05 14:10 | 45.60555 | 5.48663 | 33878 ft | 440 kts | 321° |
| 2026-05-05 14:11 | 45.65790 | 5.44081 | 33880 ft | 442 kts | 322° |
| 2026-05-05 14:11 | 45.71034 | 5.39495 | 33882 ft | 441 kts | 321° |
| 2026-05-05 14:12 | 45.76238 | 5.34842 | 33883 ft | 441 kts | 321° |
| 2026-05-05 14:12 | 45.81419 | 5.30154 | 33886 ft | 441 kts | 321° |
| 2026-05-05 14:13 | 45.86641 | 5.25436 | 33880 ft | 440 kts | 321° |
| 2026-05-05 14:13 | 45.91831 | 5.20754 | 33881 ft | 441 kts | 321° |
| 2026-05-05 14:14 | 45.96982 | 5.16091 | 33882 ft | 441 kts | 321° |
| 2026-05-05 14:14 | 46.02198 | 5.11353 | 33882 ft | 441 kts | 321° |
| 2026-05-05 14:15 | 46.07662 | 5.07218 | 33874 ft | 448 kts | 331° |
| 2026-05-05 14:15 | 46.13379 | 5.03601 | 33866 ft | 449 kts | 331° |
| 2026-05-05 14:16 | 46.19095 | 4.99960 | 33867 ft | 450 kts | 331° |
| 2026-05-05 14:16 | 46.24821 | 4.96291 | 33869 ft | 450 kts | 331° |
| 2026-05-05 14:17 | 46.30553 | 4.92622 | 33870 ft | 451 kts | 331° |
| 2026-05-05 14:17 | 46.36292 | 4.88945 | 33868 ft | 451 kts | 331° |
| 2026-05-05 14:18 | 46.42027 | 4.85263 | 33870 ft | 451 kts | 331° |
| 2026-05-05 14:18 | 46.47762 | 4.81574 | 33865 ft | 451 kts | 331° |
| 2026-05-05 14:19 | 46.52529 | 4.78489 | 33863 ft | 451 kts | 331° |
| 2026-05-05 14:19 | 46.58265 | 4.74770 | 33862 ft | 451 kts | 332° |
| 2026-05-05 14:20 | 46.63998 | 4.71054 | 33861 ft | 451 kts | 332° |
| 2026-05-05 14:20 | 46.69737 | 4.67317 | 33862 ft | 452 kts | 332° |
| 2026-05-05 14:21 | 46.75475 | 4.63568 | 33865 ft | 452 kts | 332° |
| 2026-05-05 14:21 | 46.81221 | 4.59812 | 33867 ft | 452 kts | 332° |
| 2026-05-05 14:22 | 46.86971 | 4.56068 | 33866 ft | 453 kts | 332° |
| 2026-05-05 14:22 | 46.92734 | 4.52334 | 33868 ft | 453 kts | 332° |
| 2026-05-05 14:23 | 46.98498 | 4.48583 | 33866 ft | 453 kts | 332° |
| 2026-05-05 14:23 | 47.04255 | 4.44811 | 33864 ft | 453 kts | 333° |
| 2026-05-05 14:24 | 47.10009 | 4.41031 | 33862 ft | 453 kts | 333° |
| 2026-05-05 14:24 | 47.15766 | 4.37256 | 33861 ft | 453 kts | 333° |
| 2026-05-05 14:25 | 47.21524 | 4.33474 | 33857 ft | 453 kts | 333° |
| 2026-05-05 14:25 | 47.27279 | 4.29684 | 33853 ft | 453 kts | 333° |
| 2026-05-05 14:26 | 47.32958 | 4.25931 | 33847 ft | 453 kts | 334° |
| 2026-05-05 14:26 | 47.38705 | 4.22107 | 33843 ft | 453 kts | 334° |
| 2026-05-05 14:27 | 47.44451 | 4.18278 | 33842 ft | 453 kts | 334° |
| 2026-05-05 14:27 | 47.50200 | 4.14448 | 33837 ft | 453 kts | 334° |
| 2026-05-05 14:28 | 47.55951 | 4.10610 | 33835 ft | 453 kts | 334° |
| 2026-05-05 14:28 | 47.61710 | 4.06792 | 33826 ft | 453 kts | 335° |
| 2026-05-05 14:29 | 47.67469 | 4.02984 | 33821 ft | 453 kts | 335° |
| 2026-05-05 14:29 | 47.73224 | 3.99160 | 33817 ft | 453 kts | 335° |
| 2026-05-05 14:30 | 47.78857 | 3.95001 | 33815 ft | 452 kts | 324° |
| 2026-05-05 14:30 | 47.83561 | 3.88915 | 33813 ft | 448 kts | 312° |
| 2026-05-05 14:31 | 47.87914 | 3.82252 | 33811 ft | 449 kts | 312° |
| 2026-05-05 14:31 | 47.92173 | 3.75714 | 33810 ft | 449 kts | 312° |
| 2026-05-05 14:32 | 47.96520 | 3.69028 | 33807 ft | 448 kts | 312° |
| 2026-05-05 14:32 | 48.00857 | 3.62345 | 33805 ft | 448 kts | 311° |
| 2026-05-05 14:33 | 48.05181 | 3.55651 | 33806 ft | 448 kts | 311° |
| 2026-05-05 14:33 | 48.09506 | 3.48944 | 33806 ft | 448 kts | 311° |
| 2026-05-05 14:34 | 48.13791 | 3.42272 | 33807 ft | 448 kts | 311° |
| 2026-05-05 14:34 | 48.18137 | 3.35485 | 33808 ft | 448 kts | 311° |
| 2026-05-05 14:35 | 48.22422 | 3.28786 | 33810 ft | 448 kts | 311° |
| 2026-05-05 14:35 | 48.26763 | 3.21985 | 33815 ft | 448 kts | 311° |
| 2026-05-05 14:36 | 48.30980 | 3.15357 | 33820 ft | 448 kts | 311° |
| 2026-05-05 14:36 | 48.35282 | 3.08573 | 33825 ft | 448 kts | 311° |
| 2026-05-05 14:37 | 48.39535 | 3.01730 | 33829 ft | 446 kts | 306° |
| 2026-05-05 14:37 | 48.42661 | 2.93790 | 33821 ft | 438 kts | 288° |
| 2026-05-05 14:38 | 48.44434 | 2.85070 | 33819 ft | 435 kts | 282° |
| 2026-05-05 14:38 | 48.46114 | 2.76301 | 33820 ft | 436 kts | 282° |
| 2026-05-05 14:39 | 48.47791 | 2.67500 | 33814 ft | 438 kts | 282° |
| 2026-05-05 14:39 | 48.49475 | 2.58660 | 33817 ft | 439 kts | 283° |
| 2026-05-05 14:40 | 48.51154 | 2.49794 | 33818 ft | 440 kts | 282° |
| 2026-05-05 14:40 | 48.52824 | 2.40897 | 33642 ft | 444 kts | 282° |
| 2026-05-05 14:41 | 48.53663 | 2.36400 | 32618 ft | 444 kts | 283° |
| 2026-05-05 14:41 | 48.54486 | 2.32008 | 32249 ft | 426 kts | 283° |
| 2026-05-05 14:41 | 48.55291 | 2.27719 | 31735 ft | 424 kts | 283° |
| 2026-05-05 14:41 | 48.56087 | 2.23448 | 31236 ft | 421 kts | 283° |
| 2026-05-05 14:42 | 48.56871 | 2.19202 | 30739 ft | 419 kts | 283° |
| 2026-05-05 14:42 | 48.57576 | 2.14965 | 30278 ft | 415 kts | 281° |
| 2026-05-05 14:42 | 48.58193 | 2.10719 | 29809 ft | 412 kts | 280° |
| 2026-05-05 14:42 | 48.58755 | 2.06500 | 29373 ft | 408 kts | 279° |
| 2026-05-05 14:43 | 48.59298 | 2.02309 | 28930 ft | 405 kts | 279° |
| 2026-05-05 14:43 | 48.59845 | 1.98148 | 28492 ft | 402 kts | 280° |
| 2026-05-05 14:43 | 48.60392 | 1.94083 | 28075 ft | 399 kts | 280° |
| 2026-05-05 14:43 | 48.60950 | 1.90002 | 27655 ft | 395 kts | 281° |
| 2026-05-05 14:44 | 48.61510 | 1.85952 | 27230 ft | 393 kts | 281° |
| 2026-05-05 14:44 | 48.62069 | 1.81927 | 26808 ft | 390 kts | 281° |
| 2026-05-05 14:44 | 48.62625 | 1.77929 | 26381 ft | 387 kts | 281° |
| 2026-05-05 14:44 | 48.63176 | 1.73960 | 25960 ft | 385 kts | 281° |
| 2026-05-05 14:45 | 48.63717 | 1.70019 | 25524 ft | 382 kts | 281° |
| 2026-05-05 14:45 | 48.64252 | 1.66104 | 25083 ft | 379 kts | 281° |
| 2026-05-05 14:45 | 48.64784 | 1.62213 | 24637 ft | 376 kts | 281° |
| 2026-05-05 14:45 | 48.65308 | 1.58346 | 24180 ft | 374 kts | 281° |
| 2026-05-05 14:46 | 48.65825 | 1.54507 | 23731 ft | 372 kts | 281° |
| 2026-05-05 14:46 | 48.66339 | 1.50686 | 23269 ft | 370 kts | 281° |
| 2026-05-05 14:46 | 48.66849 | 1.46886 | 22820 ft | 368 kts | 281° |
| 2026-05-05 14:46 | 48.67356 | 1.43108 | 22377 ft | 365 kts | 281° |
| 2026-05-05 14:47 | 48.67857 | 1.39355 | 21944 ft | 363 kts | 281° |
| 2026-05-05 14:47 | 48.68352 | 1.35620 | 21516 ft | 361 kts | 281° |
| 2026-05-05 14:47 | 48.68846 | 1.31909 | 21086 ft | 359 kts | 281° |
| 2026-05-05 14:47 | 48.69336 | 1.28216 | 20660 ft | 357 kts | 281° |
| 2026-05-05 14:48 | 48.69823 | 1.24551 | 20237 ft | 354 kts | 281° |
| 2026-05-05 14:48 | 48.70305 | 1.20908 | 19819 ft | 352 kts | 281° |
| 2026-05-05 14:48 | 48.70782 | 1.17287 | 19409 ft | 350 kts | 281° |
| 2026-05-05 14:48 | 48.71256 | 1.13686 | 18998 ft | 348 kts | 281° |
| 2026-05-05 14:49 | 48.71729 | 1.10091 | 18519 ft | 348 kts | 280° |
| 2026-05-05 14:49 | 48.72196 | 1.06536 | 18271 ft | 341 kts | 280° |
| 2026-05-05 14:49 | 48.72655 | 1.03031 | 17894 ft | 339 kts | 280° |
| 2026-05-05 14:49 | 48.73108 | 0.99547 | 17496 ft | 337 kts | 280° |
| 2026-05-05 14:50 | 48.73557 | 0.96066 | 17105 ft | 336 kts | 280° |
| 2026-05-05 14:50 | 48.74003 | 0.92604 | 16712 ft | 334 kts | 280° |
| 2026-05-05 14:50 | 48.74445 | 0.89160 | 16339 ft | 332 kts | 280° |
| 2026-05-05 14:50 | 48.74886 | 0.85731 | 15946 ft | 331 kts | 280° |
| 2026-05-05 14:51 | 48.75326 | 0.82316 | 15558 ft | 330 kts | 280° |
| 2026-05-05 14:51 | 48.75766 | 0.78910 | 15178 ft | 329 kts | 280° |
| 2026-05-05 14:51 | 48.76203 | 0.75514 | 14798 ft | 328 kts | 280° |
| 2026-05-05 14:51 | 48.76638 | 0.72132 | 14414 ft | 326 kts | 280° |
| 2026-05-05 14:52 | 48.77067 | 0.68766 | 14035 ft | 325 kts | 280° |
| 2026-05-05 14:52 | 48.77493 | 0.65415 | 13658 ft | 323 kts | 280° |
| 2026-05-05 14:52 | 48.77918 | 0.62078 | 13283 ft | 321 kts | 280° |
| 2026-05-05 14:52 | 48.78418 | 0.58792 | 12903 ft | 320 kts | 290° |
| 2026-05-05 14:53 | 48.79481 | 0.55899 | 12527 ft | 319 kts | 309° |
| 2026-05-05 14:53 | 48.81156 | 0.53655 | 12143 ft | 318 kts | 329° |
| 2026-05-05 14:53 | 48.83165 | 0.52424 | 11774 ft | 316 kts | 348° |
| 2026-05-05 14:53 | 48.85340 | 0.52018 | 11390 ft | 314 kts | 354° |
| 2026-05-05 14:54 | 48.87511 | 0.51686 | 11008 ft | 312 kts | 354° |
| 2026-05-05 14:54 | 48.89669 | 0.51351 | 10616 ft | 311 kts | 354° |
| 2026-05-05 14:54 | 48.91814 | 0.51010 | 10229 ft | 309 kts | 354° |
| 2026-05-05 14:54 | 48.93920 | 0.50670 | 10073 ft | 299 kts | 354° |
| 2026-05-05 14:55 | 48.95970 | 0.50338 | 9755 ft | 294 kts | 354° |
| 2026-05-05 14:55 | 48.97992 | 0.50012 | 9139 ft | 290 kts | 355° |
| 2026-05-05 14:55 | 48.99967 | 0.49693 | 8695 ft | 280 kts | 355° |
| 2026-05-05 14:55 | 49.01865 | 0.49386 | 8307 ft | 269 kts | 355° |
| 2026-05-05 14:56 | 49.03684 | 0.49096 | 7949 ft | 257 kts | 355° |
| 2026-05-05 14:56 | 49.05463 | 0.48817 | 7583 ft | 257 kts | 355° |
| 2026-05-05 14:56 | 49.07238 | 0.48537 | 7219 ft | 256 kts | 355° |
| 2026-05-05 14:56 | 49.09004 | 0.48253 | 6847 ft | 254 kts | 355° |
| 2026-05-05 14:57 | 49.10762 | 0.47971 | 6458 ft | 254 kts | 355° |
| 2026-05-05 14:57 | 49.12516 | 0.47689 | 6087 ft | 253 kts | 355° |
| 2026-05-05 14:57 | 49.14265 | 0.47407 | 5705 ft | 252 kts | 355° |
| 2026-05-05 14:57 | 49.16009 | 0.47125 | 5318 ft | 252 kts | 355° |
| 2026-05-05 14:58 | 49.17749 | 0.46843 | 4933 ft | 251 kts | 355° |
| 2026-05-05 14:58 | 49.19482 | 0.46562 | 4546 ft | 250 kts | 355° |
| 2026-05-05 14:58 | 49.21210 | 0.46284 | 4152 ft | 249 kts | 355° |
| 2026-05-05 14:58 | 49.22933 | 0.46010 | 3764 ft | 249 kts | 355° |
| 2026-05-05 14:59 | 49.24646 | 0.45653 | 3347 ft | 248 kts | 346° |
| 2026-05-05 14:59 | 49.26189 | 0.44519 | 3028 ft | 246 kts | 324° |
| 2026-05-05 14:59 | 49.27339 | 0.42615 | 2997 ft | 247 kts | 304° |
| 2026-05-05 14:59 | 49.28147 | 0.40308 | 2996 ft | 239 kts | 300° |
| 2026-05-05 15:00 | 49.28884 | 0.38123 | 2997 ft | 223 kts | 300° |
| 2026-05-05 15:00 | 49.29345 | 0.36756 | 2997 ft | 216 kts | 300° |
| 2026-05-05 15:00 | 49.30251 | 0.34067 | 2994 ft | 207 kts | 300° |
| 2026-05-05 15:00 | 49.30895 | 0.32144 | 2701 ft | 205 kts | 300° |
| 2026-05-05 15:01 | 49.31522 | 0.30261 | 2494 ft | 190 kts | 300° |
| 2026-05-05 15:01 | 49.32107 | 0.28525 | 2205 ft | 178 kts | 300° |
| 2026-05-05 15:01 | 49.32652 | 0.26907 | 1978 ft | 161 kts | 300° |
| 2026-05-05 15:01 | 49.33144 | 0.25451 | 1729 ft | 148 kts | 300° |
| 2026-05-05 15:02 | 49.33620 | 0.24073 | 1550 ft | 145 kts | 300° |
| 2026-05-05 15:02 | 49.34079 | 0.22707 | 1354 ft | 144 kts | 300° |
| 2026-05-05 15:02 | 49.34532 | 0.21348 | 1173 ft | 143 kts | 300° |
| 2026-05-05 15:02 | 49.34985 | 0.19996 | 981 ft | 142 kts | 300° |
| 2026-05-05 15:03 | 49.35445 | 0.18658 | 827 ft | 142 kts | 300° |
| 2026-05-05 15:03 | 49.35895 | 0.17305 | 646 ft | 142 kts | 300° |
| 2026-05-05 15:03 | 49.36345 | 0.15971 | 482 ft | 133 kts | 298° |
| 2026-05-05 15:03 | 49.36657 | 0.15044 | 484 ft | 55 kts | 297° |
| 2026-05-05 15:04 | 49.36745 | 0.14775 | 487 ft | 26 kts | 296° |
| 2026-05-05 15:04 | 49.36827 | 0.14484 | 482 ft | 25 kts | 270° |
| 2026-05-05 15:04 | 49.36849 | 0.14452 | 481 ft | 6 kts | 88° |
| 2026-05-05 15:04 | 49.36826 | 0.14535 | 484 ft | 11 kts | 117° |
| 2026-05-05 15:05 | 49.36711 | 0.14880 | 490 ft | 25 kts | 116° |
| 2026-05-05 15:05 | 49.36622 | 0.15138 | 482 ft | 29 kts | 118° |
| 2026-05-05 15:05 | 49.36527 | 0.15419 | 479 ft | 31 kts | 117° |
| 2026-05-05 15:06 | 49.36434 | 0.15700 | 480 ft | 30 kts | 116° |
| 2026-05-05 15:06 | 49.36346 | 0.15950 | 483 ft | 20 kts | 135° |
| 2026-05-05 15:06 | 49.36246 | 0.15919 | 483 ft | 12 kts | 202° |
| 2026-05-05 15:06 | 49.36193 | 0.15918 | 479 ft | 0 kts | 153° |
| 2026-05-05 15:07 | 49.36189 | 0.15922 | 488 ft | 3 kts | 144° |
| 2026-05-05 15:07 | 49.36144 | 0.15941 | 484 ft | 9 kts | 197° |
| 2026-05-05 15:08 | 49.36127 | 0.15913 | 488 ft | 0 kts | 263° |
| 2026-05-05 15:08 | 49.36136 | 0.15897 | 482 ft | 3 kts | 304° |
| 2026-05-05 15:08 | 49.36144 | 0.15893 | 488 ft | 0 kts | 340° |